createdAt,value
2019-03-03T00:02:14.188Z,180.48
2019-03-03T00:04:44.178Z,177.35
2019-03-03T00:07:14.552Z,176.95
2019-03-03T00:09:44.584Z,180.10
2019-03-03T00:12:14.679Z,182.17
2019-03-03T00:14:44.652Z,168.52
2019-03-03T00:17:14.594Z,177.15
2019-03-03T00:19:44.560Z,161.37
2019-03-03T00:22:14.627Z,153.15
2019-03-03T00:24:44.759Z,161.20
2019-03-03T00:27:14.733Z,151.78
2019-03-03T00:29:44.925Z,169.17
2019-03-03T00:32:15.194Z,152.43
2019-03-03T00:34:45.307Z,147.00
2019-03-03T00:37:16.971Z,159.60
2019-03-03T00:39:48.759Z,152.05
2019-03-03T00:42:32.389Z,145.55
2019-03-03T00:45:19.165Z,148.78
2019-03-03T00:47:56.623Z,156.93
2019-03-03T00:50:28.378Z,153.02
2019-03-03T00:53:09.050Z,137.60
2019-03-03T00:55:40.716Z,145.62
2019-03-03T00:58:12.042Z,141.47
2019-03-03T01:00:46.611Z,147.05
2019-03-03T01:03:21.159Z,146.77
2019-03-03T01:05:52.869Z,145.60
2019-03-03T01:08:27.559Z,141.28
2019-03-03T01:11:14.430Z,146.82
2019-03-03T01:13:46.135Z,143.05
2019-03-03T01:16:18.124Z,144.05
2019-03-03T01:18:55.615Z,142.28
2019-03-03T01:21:27.319Z,138.80
2019-03-03T01:24:10.992Z,139.95
2019-03-03T01:26:41.082Z,130.85
2019-03-03T01:29:11.218Z,137.88
2019-03-03T01:31:41.571Z,139.97
2019-03-03T01:34:11.585Z,129.00
2019-03-03T01:36:41.782Z,132.32
2019-03-03T01:39:12.910Z,133.85
2019-03-03T01:41:43.046Z,126.55
2019-03-03T01:44:14.252Z,124.30
2019-03-03T01:46:44.314Z,125.62
2019-03-03T01:49:14.375Z,137.62
2019-03-03T01:51:44.446Z,124.33
2019-03-03T01:54:14.458Z,127.62
2019-03-03T01:56:44.485Z,117.93
2019-03-03T01:59:14.497Z,119.65
2019-03-03T02:01:44.496Z,124.02
2019-03-03T02:04:14.510Z,124.20
2019-03-03T02:06:44.612Z,125.53
2019-03-03T02:09:14.952Z,120.72
2019-03-03T02:11:44.982Z,120.85
2019-03-03T02:14:15.173Z,120.22
2019-03-03T02:16:46.311Z,117.13
2019-03-03T02:19:16.347Z,104.07
2019-03-03T02:21:46.336Z,107.50
2019-03-03T02:24:16.666Z,99.50
2019-03-03T02:26:46.765Z,97.27
2019-03-03T02:29:16.777Z,94.60
2019-03-03T02:31:46.734Z,91.15
2019-03-03T02:34:16.850Z,96.28
2019-03-03T02:36:46.809Z,94.28
2019-03-03T02:39:17.112Z,97.57
2019-03-03T02:41:47.057Z,98.35
2019-03-03T02:44:17.141Z,93.75
2019-03-03T02:46:47.214Z,92.95
2019-03-03T02:49:17.196Z,91.40
2019-03-03T02:51:47.215Z,91.80
2019-03-03T02:54:17.270Z,93.10
2019-03-03T02:56:47.254Z,94.15
2019-03-03T02:59:17.280Z,87.17
2019-03-03T03:01:49.125Z,92.95
2019-03-03T03:04:19.890Z,87.55
2019-03-03T03:06:57.240Z,90.22
2019-03-03T03:09:28.858Z,91.17
2019-03-03T03:12:06.249Z,89.97
2019-03-03T03:14:38.085Z,86.30
2019-03-03T03:17:18.622Z,92.88
2019-03-03T03:20:06.556Z,89.85
2019-03-03T03:22:40.860Z,94.13
2019-03-03T03:25:12.487Z,93.17
2019-03-03T03:27:53.506Z,94.75
2019-03-03T03:30:25.358Z,94.42
2019-03-03T03:32:56.993Z,92.27
2019-03-03T03:35:34.436Z,92.78
2019-03-03T03:38:06.079Z,96.92
2019-03-03T03:40:40.430Z,95.30
2019-03-03T03:43:17.810Z,95.67
2019-03-03T03:46:08.183Z,94.62
2019-03-03T03:48:39.835Z,93.92
2019-03-03T03:51:17.470Z,96.17
2019-03-03T03:53:49.062Z,88.37
2019-03-03T03:56:23.628Z,86.78
2019-03-03T03:58:58.217Z,83.67
2019-03-03T04:01:30.135Z,90.17
2019-03-03T04:04:07.632Z,87.92
2019-03-03T04:06:41.925Z,80.80
2019-03-03T04:09:15.489Z,84.58
2019-03-03T04:11:47.143Z,77.75
2019-03-03T04:14:21.652Z,83.15
2019-03-03T04:16:59.131Z,75.22
2019-03-03T04:19:30.987Z,78.17
2019-03-03T04:22:08.744Z,75.17
2019-03-03T04:24:46.239Z,72.62
2019-03-03T04:27:20.619Z,70.90
2019-03-03T04:30:07.313Z,66.40
2019-03-03T04:32:50.872Z,70.22
2019-03-03T04:35:28.005Z,65.03
2019-03-03T04:37:59.931Z,67.80
2019-03-03T04:40:37.452Z,70.25
2019-03-03T04:43:14.924Z,65.95
2019-03-03T04:45:46.736Z,65.32
2019-03-03T04:48:30.896Z,68.00
2019-03-03T04:51:14.478Z,73.95
2019-03-03T04:53:51.924Z,64.12
2019-03-03T04:56:29.241Z,70.47
2019-03-03T04:59:06.847Z,67.72
2019-03-03T05:01:38.416Z,70.12
2019-03-03T05:04:16.060Z,70.08
2019-03-03T05:06:47.642Z,61.95
2019-03-03T05:09:22.559Z,66.67
2019-03-03T05:12:09.338Z,71.65
2019-03-03T05:14:40.736Z,73.67
2019-03-03T05:17:14.993Z,61.05
2019-03-03T05:19:46.648Z,66.10
2019-03-03T05:22:16.684Z,63.02
2019-03-03T05:24:46.684Z,63.52
2019-03-03T05:27:16.700Z,61.23
2019-03-03T05:29:46.294Z,56.55
2019-03-03T05:32:16.203Z,58.02
2019-03-03T05:34:46.185Z,57.85
2019-03-03T05:37:16.307Z,62.85
2019-03-03T05:39:46.262Z,59.88
2019-03-03T05:42:16.256Z,54.70
2019-03-03T05:44:46.270Z,54.73
2019-03-03T05:47:16.285Z,53.15
2019-03-03T05:49:46.304Z,57.85
2019-03-03T05:52:16.502Z,52.90
2019-03-03T05:54:46.943Z,58.75
2019-03-03T05:57:16.979Z,59.23
2019-03-03T05:59:46.971Z,59.42
2019-03-03T06:02:17.142Z,61.33
2019-03-03T06:04:47.151Z,55.70
2019-03-03T06:07:18.227Z,56.42
2019-03-03T06:09:48.201Z,56.05
2019-03-03T06:12:18.165Z,52.78
2019-03-03T06:14:48.102Z,51.35
2019-03-03T06:17:18.179Z,53.55
2019-03-03T06:19:48.092Z,59.13
2019-03-03T06:22:18.171Z,61.45
2019-03-03T06:24:50.662Z,51.53
2019-03-03T06:27:19.992Z,54.80
2019-03-03T06:29:50.013Z,54.50
2019-03-03T06:32:19.805Z,53.20
2019-03-03T06:34:49.736Z,55.35
2019-03-03T06:37:19.935Z,58.58
2019-03-03T06:39:49.976Z,62.85
2019-03-03T06:42:19.707Z,58.70
2019-03-03T06:44:49.561Z,63.17
2019-03-03T06:47:19.592Z,63.65
2019-03-03T06:49:49.599Z,67.37
2019-03-03T06:52:19.645Z,64.12
2019-03-03T06:54:49.648Z,68.90
2019-03-03T06:57:20.876Z,67.15
2019-03-03T06:59:50.986Z,74.20
2019-03-03T07:02:20.933Z,70.92
2019-03-03T07:04:50.927Z,73.50
2019-03-03T07:07:20.973Z,69.70
2019-03-03T07:09:51.383Z,68.83
2019-03-03T07:12:21.356Z,77.05
2019-03-03T07:14:51.638Z,70.42
2019-03-03T07:17:21.659Z,70.80
2019-03-03T07:19:51.593Z,75.10
2019-03-03T07:22:21.617Z,65.60
2019-03-03T07:24:51.685Z,79.17
2019-03-03T07:27:21.820Z,70.15
2019-03-03T07:29:51.768Z,67.25
2019-03-03T07:32:21.835Z,63.40
2019-03-03T07:34:52.123Z,68.12
2019-03-03T07:37:22.160Z,59.08
2019-03-03T07:39:53.464Z,61.73
2019-03-03T07:42:23.516Z,60.08
2019-03-03T07:44:53.556Z,56.88
2019-03-03T07:47:23.805Z,56.50
2019-03-03T07:49:53.830Z,57.38
2019-03-03T07:52:23.935Z,48.35
2019-03-03T07:54:53.916Z,52.73
2019-03-03T07:57:23.848Z,52.50
2019-03-03T07:59:53.863Z,50.35
2019-03-03T08:02:23.846Z,49.18
2019-03-03T08:04:54.006Z,54.10
2019-03-03T08:07:23.959Z,44.05
2019-03-03T08:09:54.420Z,44.42
2019-03-03T08:12:24.546Z,44.20
2019-03-03T08:14:54.518Z,50.30
2019-03-03T08:17:24.471Z,44.45
2019-03-03T08:19:54.513Z,44.65
2019-03-03T08:22:24.558Z,46.20
2019-03-03T08:24:54.682Z,45.73
2019-03-03T08:27:24.922Z,47.27
2019-03-03T08:29:54.892Z,43.08
2019-03-03T08:32:24.935Z,49.03
2019-03-03T08:34:54.944Z,45.78
2019-03-03T08:37:26.004Z,40.28
2019-03-03T08:39:56.123Z,46.73
2019-03-03T08:42:27.806Z,40.88
2019-03-03T08:44:59.477Z,38.15
2019-03-03T08:47:42.834Z,43.15
2019-03-03T08:50:14.485Z,41.05
2019-03-03T08:52:46.275Z,36.38
2019-03-03T08:55:27.059Z,41.65
2019-03-03T08:58:17.848Z,41.48
2019-03-03T09:00:49.722Z,36.13
2019-03-03T09:03:21.322Z,27.40
2019-03-03T09:06:05.201Z,32.35
2019-03-03T09:08:45.712Z,33.83
2019-03-03T09:11:20.242Z,30.37
2019-03-03T09:13:51.961Z,39.25
2019-03-03T09:16:32.897Z,26.77
2019-03-03T09:19:04.607Z,31.60
2019-03-03T09:21:39.168Z,27.55
2019-03-03T09:24:29.119Z,29.95
2019-03-03T09:27:03.859Z,25.90
2019-03-03T09:29:44.610Z,33.80
2019-03-03T09:32:32.740Z,32.10
2019-03-03T09:35:16.630Z,31.97
2019-03-03T09:37:49.382Z,32.78
2019-03-03T09:40:29.967Z,27.65
2019-03-03T09:43:07.824Z,31.25
2019-03-03T09:45:45.852Z,26.82
2019-03-03T09:48:23.259Z,28.42
2019-03-03T09:50:54.937Z,31.37
2019-03-03T09:53:26.542Z,28.40
2019-03-03T09:55:58.358Z,30.15
2019-03-03T09:58:46.400Z,30.05
2019-03-03T10:01:26.859Z,27.37
2019-03-03T10:03:58.452Z,26.33
2019-03-03T10:06:46.832Z,26.45
2019-03-03T10:09:31.048Z,25.25
2019-03-03T10:12:08.463Z,24.02
2019-03-03T10:14:40.183Z,23.12
2019-03-03T10:17:20.856Z,23.42
2019-03-03T10:20:04.430Z,26.82
2019-03-03T10:22:45.327Z,27.90
2019-03-03T10:25:19.613Z,26.12
2019-03-03T10:27:57.574Z,25.70
2019-03-03T10:30:38.550Z,26.52
2019-03-03T10:33:13.282Z,31.12
2019-03-03T10:35:50.907Z,24.67
2019-03-03T10:38:37.924Z,23.52
2019-03-03T10:41:09.759Z,26.33
2019-03-03T10:43:41.423Z,18.07
2019-03-03T10:46:31.108Z,18.30
2019-03-03T10:49:05.446Z,19.50
2019-03-03T10:51:43.014Z,20.40
2019-03-03T10:54:14.618Z,21.68
2019-03-03T10:56:58.012Z,25.15
2019-03-03T10:59:32.471Z,25.97
2019-03-03T11:02:09.927Z,27.40
2019-03-03T11:04:41.682Z,27.05
2019-03-03T11:07:13.372Z,25.60
2019-03-03T11:09:56.902Z,22.80
2019-03-03T11:12:43.861Z,21.07
2019-03-03T11:15:28.130Z,27.80
2019-03-03T11:18:15.953Z,23.50
2019-03-03T11:20:56.566Z,23.65
2019-03-03T11:23:30.744Z,22.42
2019-03-03T11:26:21.444Z,21.33
2019-03-03T11:29:07.962Z,21.62
2019-03-03T11:31:45.885Z,23.47
2019-03-03T11:34:20.246Z,25.92
2019-03-03T11:36:54.905Z,28.50
2019-03-03T11:39:26.716Z,25.30
2019-03-03T11:41:58.423Z,21.20
2019-03-03T11:44:48.235Z,28.30
2019-03-03T11:47:22.846Z,22.15
2019-03-03T11:50:11.090Z,23.30
2019-03-03T11:52:45.246Z,26.87
2019-03-03T11:55:29.223Z,22.42
2019-03-03T11:58:03.668Z,23.52
2019-03-03T12:00:50.386Z,22.82
2019-03-03T12:03:34.452Z,23.75
2019-03-03T12:06:15.379Z,22.30
2019-03-03T12:08:47.104Z,14.95
2019-03-03T12:11:18.690Z,23.90
2019-03-03T12:13:56.260Z,20.55
2019-03-03T12:16:36.911Z,24.92
2019-03-03T12:19:21.083Z,17.80
2019-03-03T12:21:52.842Z,19.50
2019-03-03T12:24:27.261Z,22.00
2019-03-03T12:26:58.917Z,19.87
2019-03-03T12:29:46.903Z,19.07
2019-03-03T12:32:18.527Z,14.35
2019-03-03T12:34:50.137Z,15.00
2019-03-03T12:37:27.687Z,14.43
2019-03-03T12:40:15.807Z,16.32
2019-03-03T12:42:51.087Z,14.35
2019-03-03T12:45:38.894Z,14.18
2019-03-03T12:48:28.951Z,18.37
2019-03-03T12:51:03.162Z,15.80
2019-03-03T12:53:43.736Z,13.55
2019-03-03T12:56:32.063Z,15.75
2019-03-03T12:59:03.649Z,16.55
2019-03-03T13:01:38.289Z,14.73
2019-03-03T13:04:26.318Z,12.95
2019-03-03T13:07:14.211Z,15.70
2019-03-03T13:09:45.881Z,17.82
2019-03-03T13:12:33.996Z,16.27
2019-03-03T13:15:10.581Z,19.82
2019-03-03T13:17:58.630Z,15.68
2019-03-03T13:20:35.729Z,15.80
2019-03-03T13:23:07.512Z,16.57
2019-03-03T13:25:39.239Z,15.35
2019-03-03T13:28:10.999Z,14.65
2019-03-03T13:31:00.409Z,15.32
2019-03-03T13:33:48.443Z,15.88
2019-03-03T13:36:25.887Z,16.85
2019-03-03T13:39:14.763Z,16.42
2019-03-03T13:41:49.179Z,12.23
2019-03-03T13:44:28.372Z,14.67
2019-03-03T13:46:58.320Z,15.55
2019-03-03T13:49:28.439Z,14.05
2019-03-03T13:51:58.433Z,19.27
2019-03-03T13:54:31.038Z,16.93
2019-03-03T13:57:01.253Z,15.63
2019-03-03T13:59:31.259Z,14.53
2019-03-03T14:02:01.206Z,15.63
2019-03-03T14:04:32.360Z,10.70
2019-03-03T14:07:02.444Z,12.45
2019-03-03T14:09:32.465Z,16.37
2019-03-03T14:12:02.531Z,15.83
2019-03-03T14:14:32.535Z,15.45
2019-03-03T14:17:02.575Z,16.75
2019-03-03T14:19:32.576Z,13.08
2019-03-03T14:22:02.636Z,15.83
2019-03-03T14:24:32.568Z,13.68
2019-03-03T14:27:10.288Z,16.27
2019-03-03T14:29:35.327Z,12.15
2019-03-03T14:32:05.473Z,13.55
2019-03-03T14:34:35.535Z,15.05
2019-03-03T14:37:05.549Z,15.05
2019-03-03T14:39:37.042Z,16.42
2019-03-03T14:42:07.235Z,13.30
2019-03-03T14:44:37.248Z,15.50
2019-03-03T14:47:07.178Z,17.35
2019-03-03T14:49:38.134Z,16.07
2019-03-03T14:52:08.072Z,16.00
2019-03-03T14:54:38.075Z,16.02
2019-03-03T14:57:08.022Z,15.48
2019-03-03T14:59:38.071Z,14.73
2019-03-03T15:02:08.047Z,12.50
2019-03-03T15:04:38.025Z,17.00
2019-03-03T15:07:07.702Z,13.85
2019-03-03T15:09:37.318Z,14.58
2019-03-03T15:12:07.488Z,16.27
2019-03-03T15:14:37.440Z,16.15
2019-03-03T15:17:09.016Z,16.05
2019-03-03T15:19:38.958Z,13.65
2019-03-03T15:22:08.713Z,17.82
2019-03-03T15:24:38.734Z,16.82
2019-03-03T15:27:08.464Z,15.45
2019-03-03T15:29:38.339Z,16.93
2019-03-03T15:32:08.272Z,14.75
2019-03-03T15:34:38.231Z,17.70
2019-03-03T15:37:09.991Z,14.85
2019-03-03T15:39:40.017Z,17.87
2019-03-03T15:42:09.776Z,12.82
2019-03-03T15:44:39.639Z,16.75
2019-03-03T15:47:09.712Z,19.05
2019-03-03T15:49:39.847Z,20.12
2019-03-03T15:52:09.643Z,18.20
2019-03-03T15:54:39.327Z,16.80
2019-03-03T15:57:09.255Z,18.95
2019-03-03T15:59:38.847Z,22.58
2019-03-03T16:02:09.614Z,17.65
2019-03-03T16:04:39.232Z,18.25
2019-03-03T16:07:09.367Z,18.07
2019-03-03T16:09:39.301Z,16.55
2019-03-03T16:12:09.284Z,19.87
2019-03-03T16:14:39.396Z,18.42
2019-03-03T16:17:09.499Z,17.10
2019-03-03T16:19:39.861Z,14.03
2019-03-03T16:22:09.898Z,17.45
2019-03-03T16:24:39.568Z,16.30
2019-03-03T16:27:09.481Z,15.80
2019-03-03T16:29:39.444Z,18.75
2019-03-03T16:32:09.204Z,12.82
2019-03-03T16:34:38.769Z,19.32
2019-03-03T16:37:08.631Z,21.75
2019-03-03T16:39:38.245Z,24.60
2019-03-03T16:42:08.123Z,19.15
2019-03-03T16:44:37.967Z,20.40
2019-03-03T16:47:07.574Z,24.10
2019-03-03T16:49:37.195Z,22.62
2019-03-03T16:52:06.786Z,23.98
2019-03-03T16:54:36.436Z,25.85
2019-03-03T16:57:06.332Z,24.80
2019-03-03T16:59:35.958Z,21.60
2019-03-03T17:02:05.976Z,22.90
2019-03-03T17:04:35.727Z,24.70
2019-03-03T17:07:05.459Z,26.97
2019-03-03T17:09:35.297Z,27.20
2019-03-03T17:12:05.244Z,23.47
2019-03-03T17:14:36.700Z,25.27
2019-03-03T17:17:06.764Z,28.20
2019-03-03T17:19:36.772Z,20.52
2019-03-03T17:22:06.738Z,24.45
2019-03-03T17:24:36.515Z,23.15
2019-03-03T17:27:06.415Z,19.55
2019-03-03T17:29:36.478Z,26.48
2019-03-03T17:32:06.480Z,23.22
2019-03-03T17:34:37.175Z,26.10
2019-03-03T17:37:07.076Z,25.85
2019-03-03T17:39:37.083Z,25.17
2019-03-03T17:42:07.146Z,21.27
2019-03-03T17:44:36.763Z,25.23
2019-03-03T17:47:06.641Z,23.62
2019-03-03T17:49:36.283Z,24.98
2019-03-03T17:52:06.226Z,21.65
2019-03-03T17:54:36.022Z,24.00
2019-03-03T17:57:05.992Z,29.80
2019-03-03T17:59:35.644Z,25.12
2019-03-03T18:02:05.666Z,29.45
2019-03-03T18:04:35.656Z,18.50
2019-03-03T18:07:05.308Z,22.77
2019-03-03T18:09:35.189Z,27.50
2019-03-03T18:12:05.272Z,28.50
2019-03-03T18:14:35.269Z,22.77
2019-03-03T18:17:05.271Z,31.50
2019-03-03T18:19:35.561Z,30.95
2019-03-03T18:22:05.437Z,28.57
2019-03-03T18:24:35.445Z,29.65
2019-03-03T18:27:05.114Z,27.90
2019-03-03T18:29:35.022Z,27.30
2019-03-03T18:32:04.633Z,31.07
2019-03-03T18:34:34.268Z,28.80
2019-03-03T18:37:04.128Z,25.23
2019-03-03T18:39:34.060Z,24.05
2019-03-03T18:42:03.675Z,20.12
2019-03-03T18:44:33.327Z,26.35
2019-03-03T18:47:02.921Z,27.55
2019-03-03T18:49:32.455Z,26.93
2019-03-03T18:52:02.000Z,24.98
2019-03-03T18:54:31.616Z,25.08
2019-03-03T18:57:02.539Z,25.30
2019-03-03T18:59:32.168Z,22.98
2019-03-03T19:02:02.450Z,24.72
2019-03-03T19:04:32.479Z,24.15
2019-03-03T19:07:03.417Z,28.80
2019-03-03T19:09:33.431Z,31.60
2019-03-03T19:12:03.357Z,29.02
2019-03-03T19:14:33.414Z,27.82
2019-03-03T19:17:03.519Z,31.00
2019-03-03T19:19:33.537Z,25.25
2019-03-03T19:22:03.574Z,27.62
2019-03-03T19:24:33.629Z,23.57
2019-03-03T19:27:04.307Z,26.40
2019-03-03T19:29:34.184Z,23.25
2019-03-03T19:32:04.509Z,29.42
2019-03-03T19:34:34.464Z,25.15
2019-03-03T19:37:04.652Z,24.18
2019-03-03T19:39:37.538Z,26.35
2019-03-03T19:42:07.588Z,24.40
2019-03-03T19:44:37.324Z,25.50
2019-03-03T19:47:07.307Z,24.98
2019-03-03T19:49:38.208Z,25.05
2019-03-03T19:52:08.150Z,25.95
2019-03-03T19:54:41.362Z,19.35
2019-03-03T19:57:12.240Z,23.77
2019-03-03T19:59:42.254Z,19.20
2019-03-03T20:02:12.451Z,24.12
2019-03-03T20:04:42.435Z,20.85
2019-03-03T20:07:12.501Z,24.05
2019-03-03T20:09:42.100Z,19.25
2019-03-03T20:12:11.982Z,26.27
2019-03-03T20:14:42.021Z,23.38
2019-03-03T20:17:11.973Z,28.07
2019-03-03T20:19:42.948Z,20.27
2019-03-03T20:22:13.002Z,24.32
2019-03-03T20:24:43.030Z,21.57
2019-03-03T20:27:13.035Z,20.20
2019-03-03T20:29:42.692Z,23.77
2019-03-03T20:32:12.650Z,23.45
2019-03-03T20:34:43.645Z,25.62
2019-03-03T20:37:13.749Z,22.75
2019-03-03T20:39:43.705Z,22.17
2019-03-03T20:42:15.324Z,20.62
2019-03-03T20:44:45.246Z,23.67
2019-03-03T20:47:15.203Z,22.50
2019-03-03T20:49:45.232Z,21.50
2019-03-03T20:52:15.214Z,22.90
2019-03-03T20:54:45.147Z,22.82
2019-03-03T20:57:15.091Z,20.90
2019-03-03T20:59:45.227Z,20.27
2019-03-03T21:02:16.224Z,24.30
2019-03-03T21:04:46.199Z,20.15
2019-03-03T21:07:16.197Z,26.55
2019-03-03T21:09:46.191Z,24.50
2019-03-03T21:12:16.204Z,22.30
2019-03-03T21:14:46.176Z,20.12
2019-03-03T21:17:16.221Z,23.38
2019-03-03T21:19:46.143Z,20.10
2019-03-03T21:22:16.488Z,20.52
2019-03-03T21:24:46.459Z,21.12
2019-03-03T21:27:16.469Z,22.67
2019-03-03T21:29:46.394Z,20.57
2019-03-03T21:32:16.413Z,21.80
2019-03-03T21:34:46.355Z,20.37
2019-03-03T21:37:16.435Z,20.85
2019-03-03T21:39:46.760Z,16.90
2019-03-03T21:42:16.798Z,18.45
2019-03-03T21:44:46.789Z,18.25
2019-03-03T21:47:16.817Z,17.10
2019-03-03T21:49:46.797Z,17.75
2019-03-03T21:52:16.917Z,17.98
2019-03-03T21:54:47.085Z,16.82
2019-03-03T21:57:17.356Z,15.60
2019-03-03T21:59:47.346Z,17.27
2019-03-03T22:02:17.331Z,16.97
2019-03-03T22:04:47.305Z,16.85
2019-03-03T22:07:17.274Z,15.10
2019-03-03T22:09:47.235Z,15.85
2019-03-03T22:12:17.264Z,15.30
2019-03-03T22:14:47.457Z,13.38
2019-03-03T22:17:17.445Z,14.50
2019-03-03T22:19:47.564Z,14.85
2019-03-03T22:22:17.538Z,17.92
2019-03-03T22:24:47.467Z,15.83
2019-03-03T22:27:17.453Z,15.78
2019-03-03T22:29:47.510Z,17.07
2019-03-03T22:32:17.498Z,14.20
2019-03-03T22:34:48.625Z,16.82
2019-03-03T22:37:18.844Z,16.77
2019-03-03T22:39:48.832Z,15.93
2019-03-03T22:42:18.768Z,14.98
2019-03-03T22:44:48.696Z,14.63
2019-03-03T22:47:18.798Z,14.28
2019-03-03T22:49:48.731Z,17.15
2019-03-03T22:52:18.675Z,15.10
2019-03-03T22:54:48.656Z,16.20
2019-03-03T22:57:18.592Z,15.63
2019-03-03T22:59:48.571Z,13.68
2019-03-03T23:02:20.439Z,15.75
2019-03-03T23:04:59.408Z,17.85
2019-03-03T23:07:32.416Z,19.02
2019-03-03T23:10:38.991Z,17.60
2019-03-03T23:13:14.825Z,18.82
2019-03-03T23:16:07.486Z,19.85
2019-03-03T23:19:10.791Z,18.77
2019-03-03T23:21:46.662Z,20.35
2019-03-03T23:24:31.183Z,18.87
2019-03-03T23:27:01.269Z,18.45
2019-03-03T23:29:31.229Z,18.52
2019-03-03T23:32:01.287Z,15.90
2019-03-03T23:34:32.491Z,20.10
2019-03-03T23:37:02.655Z,20.55
2019-03-03T23:39:34.383Z,17.37
2019-03-03T23:42:04.386Z,16.12
2019-03-03T23:44:36.262Z,15.20
2019-03-03T23:47:06.246Z,14.93
2019-03-03T23:49:36.214Z,13.50
2019-03-03T23:52:06.297Z,18.70
2019-03-03T23:54:36.260Z,14.98
2019-03-03T23:57:06.303Z,12.70
2019-03-03T23:59:36.276Z,14.95
